sensor_id;sensor_type;location;lat;lon;timestamp;pressure;altitude;pressure_sealevel;temperature;humidity
66588;BME280;53446;50.076;8.198;2023-12-28T00:01:39;99471.66;;;4.84;100.00
66588;BME280;53446;50.076;8.198;2023-12-28T00:03:39;99475.09;;;4.86;100.00
66588;BME280;53446;50.076;8.198;2023-12-28T00:05:41;99460.84;;;4.86;100.00
66588;BME280;53446;50.076;8.198;2023-12-28T00:07:41;99473.44;;;4.84;100.00
66588;BME280;53446;50.076;8.198;2023-12-28T00:09:41;99472.69;;;4.82;100.00
66588;BME280;53446;50.076;8.198;2023-12-28T00:11:42;99471.09;;;4.78;100.00
66588;BME280;53446;50.076;8.198;2023-12-28T00:13:43;99472.13;;;4.75;100.00
66588;BME280;53446;50.076;8.198;2023-12-28T00:15:43;99469.50;;;4.74;100.00
66588;BME280;53446;50.076;8.198;2023-12-28T00:17:43;99469.50;;;4.74;100.00
66588;BME280;53446;50.076;8.198;2023-12-28T00:19:43;99463.84;;;4.80;100.00
66588;BME280;53446;50.076;8.198;2023-12-28T00:21:44;99466.28;;;4.84;100.00
66588;BME280;53446;50.076;8.198;2023-12-28T00:23:45;99461.44;;;4.91;100.00
66588;BME280;53446;50.076;8.198;2023-12-28T00:25:45;99455.78;;;4.97;100.00
66588;BME280;53446;50.076;8.198;2023-12-28T00:27:45;99468.09;;;5.01;100.00
66588;BME280;53446;50.076;8.198;2023-12-28T00:29:46;99471.44;;;5.05;100.00
66588;BME280;53446;50.076;8.198;2023-12-28T00:31:46;99481.94;;;5.09;100.00
66588;BME280;53446;50.076;8.198;2023-12-28T00:33:46;99481.94;;;5.09;100.00
66588;BME280;53446;50.076;8.198;2023-12-28T00:35:46;99479.34;;;5.08;100.00
66588;BME280;53446;50.076;8.198;2023-12-28T00:37:47;99469.00;;;5.00;100.00
66588;BME280;53446;50.076;8.198;2023-12-28T00:39:48;99458.63;;;4.94;100.00
66588;BME280;53446;50.076;8.198;2023-12-28T00:41:50;99466.91;;;4.90;100.00
66588;BME280;53446;50.076;8.198;2023-12-28T00:43:50;99452.78;;;4.86;100.00
66588;BME280;53446;50.076;8.198;2023-12-28T00:45:50;99467.31;;;4.82;100.00
66588;BME280;53446;50.076;8.198;2023-12-28T00:47:50;99465.72;;;4.78;100.00
66588;BME280;53446;50.076;8.198;2023-12-28T00:49:52;99457.94;;;4.73;100.00
66588;BME280;53446;50.076;8.198;2023-12-28T00:51:52;99471.41;;;4.72;100.00
66588;BME280;53446;50.076;8.198;2023-12-28T00:53:52;99467.78;;;4.73;100.00
66588;BME280;53446;50.076;8.198;2023-12-28T00:55:52;99476.44;;;4.78;100.00
66588;BME280;53446;50.076;8.198;2023-12-28T00:57:53;99465.56;;;4.81;100.00
66588;BME280;53446;50.076;8.198;2023-12-28T00:59:53;99436.72;;;4.86;100.00
66588;BME280;53446;50.076;8.198;2023-12-28T01:01:53;99450.91;;;4.88;100.00
66588;BME280;53446;50.076;8.198;2023-12-28T01:03:54;99464.91;;;4.93;100.00
66588;BME280;53446;50.076;8.198;2023-12-28T01:05:54;99463.81;;;4.97;100.00
66588;BME280;53446;50.076;8.198;2023-12-28T01:07:54;99471.69;;;5.00;100.00
66588;BME280;53446;50.076;8.198;2023-12-28T01:09:54;99486.59;;;5.06;100.00
66588;BME280;53446;50.076;8.198;2023-12-28T01:11:55;99484.47;;;5.13;100.00
66588;BME280;53446;50.076;8.198;2023-12-28T01:13:55;99481.63;;;5.16;100.00
66588;BME280;53446;50.076;8.198;2023-12-28T01:15:55;99489.31;;;5.22;100.00
66588;BME280;53446;50.076;8.198;2023-12-28T01:17:56;99492.66;;;5.27;100.00
66588;BME280;53446;50.076;8.198;2023-12-28T01:19:56;99488.69;;;5.34;100.00
66588;BME280;53446;50.076;8.198;2023-12-28T01:21:56;99503.56;;;5.40;100.00
66588;BME280;53446;50.076;8.198;2023-12-28T01:23:57;99492.59;;;5.44;100.00
66588;BME280;53446;50.076;8.198;2023-12-28T01:25:57;99494.19;;;5.48;100.00
66588;BME280;53446;50.076;8.198;2023-12-28T01:27:57;99497.47;;;5.54;100.00
66588;BME280;53446;50.076;8.198;2023-12-28T01:29:58;99492.53;;;5.62;100.00
66588;BME280;53446;50.076;8.198;2023-12-28T01:31:58;99495.69;;;5.70;100.00
66588;BME280;53446;50.076;8.198;2023-12-28T01:33:58;99505.13;;;5.77;100.00
66588;BME280;53446;50.076;8.198;2023-12-28T01:35:59;99504.78;;;5.83;100.00
66588;BME280;53446;50.076;8.198;2023-12-28T01:37:59;99506.16;;;5.90;100.00
66588;BME280;53446;50.076;8.198;2023-12-28T01:40:01;99506.75;;;5.97;100.00
66588;BME280;53446;50.076;8.198;2023-12-28T01:42:01;99510.72;;;6.06;100.00
66588;BME280;53446;50.076;8.198;2023-12-28T01:44:02;99525.47;;;6.14;100.00
66588;BME280;53446;50.076;8.198;2023-12-28T01:46:02;99531.19;;;6.24;100.00
66588;BME280;53446;50.076;8.198;2023-12-28T01:48:03;99509.19;;;6.33;100.00
66588;BME280;53446;50.076;8.198;2023-12-28T01:50:06;99506.13;;;6.40;100.00
66588;BME280;53446;50.076;8.198;2023-12-28T01:52:06;99514.88;;;6.43;100.00
66588;BME280;53446;50.076;8.198;2023-12-28T01:54:07;99520.78;;;6.50;100.00
66588;BME280;53446;50.076;8.198;2023-12-28T01:56:07;99514.19;;;6.55;100.00
66588;BME280;53446;50.076;8.198;2023-12-28T01:58:07;99513.31;;;6.55;100.00
66588;BME280;53446;50.076;8.198;2023-12-28T02:00:08;99516.00;;;6.55;100.00
66588;BME280;53446;50.076;8.198;2023-12-28T02:02:08;99519.81;;;6.51;100.00
66588;BME280;53446;50.076;8.198;2023-12-28T02:04:09;99518.69;;;6.55;100.00
66588;BME280;53446;50.076;8.198;2023-12-28T02:06:10;99527.34;;;6.60;100.00
66588;BME280;53446;50.076;8.198;2023-12-28T02:08:10;99515.53;;;6.63;100.00
66588;BME280;53446;50.076;8.198;2023-12-28T02:10:10;99528.53;;;6.70;100.00
66588;BME280;53446;50.076;8.198;2023-12-28T02:12:11;99526.53;;;6.74;100.00
66588;BME280;53446;50.076;8.198;2023-12-28T02:14:11;99520.72;;;6.82;100.00
66588;BME280;53446;50.076;8.198;2023-12-28T02:16:27;99520.53;;;6.85;100.00
66588;BME280;53446;50.076;8.198;2023-12-28T02:20:41;99511.75;;;6.97;100.00
66588;BME280;53446;50.076;8.198;2023-12-28T02:22:42;99525.78;;;7.02;100.00
66588;BME280;53446;50.076;8.198;2023-12-28T02:26:59;99528.59;;;7.15;100.00
66588;BME280;53446;50.076;8.198;2023-12-28T02:28:59;99533.78;;;7.18;100.00
66588;BME280;53446;50.076;8.198;2023-12-28T02:31:01;99535.13;;;7.25;100.00
66588;BME280;53446;50.076;8.198;2023-12-28T02:33:17;99526.13;;;7.26;100.00
66588;BME280;53446;50.076;8.198;2023-12-28T02:35:25;99537.53;;;7.30;100.00
66588;BME280;53446;50.076;8.198;2023-12-28T02:37:30;99538.31;;;7.32;100.00
66588;BME280;53446;50.076;8.198;2023-12-28T02:39:31;99542.91;;;7.30;100.00
66588;BME280;53446;50.076;8.198;2023-12-28T02:41:33;99539.88;;;7.36;100.00
66588;BME280;53446;50.076;8.198;2023-12-28T02:43:34;99531.81;;;7.36;100.00
66588;BME280;53446;50.076;8.198;2023-12-28T02:45:34;99526.34;;;7.37;100.00
66588;BME280;53446;50.076;8.198;2023-12-28T02:47:35;99547.75;;;7.39;100.00
66588;BME280;53446;50.076;8.198;2023-12-28T02:49:35;99542.75;;;7.33;100.00
66588;BME280;53446;50.076;8.198;2023-12-28T02:51:36;99548.13;;;7.33;100.00
66588;BME280;53446;50.076;8.198;2023-12-28T02:53:36;99538.59;;;7.27;100.00
66588;BME280;53446;50.076;8.198;2023-12-28T02:55:36;99533.91;;;7.31;100.00
66588;BME280;53446;50.076;8.198;2023-12-28T02:57:37;99542.91;;;7.30;100.00
66588;BME280;53446;50.076;8.198;2023-12-28T02:59:38;99542.91;;;7.30;100.00
66588;BME280;53446;50.076;8.198;2023-12-28T03:01:38;99519.50;;;7.32;100.00
66588;BME280;53446;50.076;8.198;2023-12-28T03:03:39;99518.28;;;7.37;100.00
66588;BME280;53446;50.076;8.198;2023-12-28T03:05:40;99530.75;;;7.38;100.00
66588;BME280;53446;50.076;8.198;2023-12-28T03:07:41;99536.81;;;7.42;100.00
66588;BME280;53446;50.076;8.198;2023-12-28T03:09:42;99543.72;;;7.46;100.00
66588;BME280;53446;50.076;8.198;2023-12-28T03:11:42;99537.28;;;7.49;100.00
66588;BME280;53446;50.076;8.198;2023-12-28T03:13:42;99529.91;;;7.52;100.00
66588;BME280;53446;50.076;8.198;2023-12-28T03:15:43;99529.81;;;7.54;100.00
66588;BME280;53446;50.076;8.198;2023-12-28T03:17:43;99533.38;;;7.54;100.00
66588;BME280;53446;50.076;8.198;2023-12-28T03:19:43;99522.50;;;7.56;100.00
66588;BME280;53446;50.076;8.198;2023-12-28T03:21:43;99531.53;;;7.55;100.00
66588;BME280;53446;50.076;8.198;2023-12-28T03:23:44;99518.00;;;7.56;100.00
66588;BME280;53446;50.076;8.198;2023-12-28T03:25:44;99525.09;;;7.57;100.00
66588;BME280;53446;50.076;8.198;2023-12-28T03:27:44;99518.78;;;7.58;100.00
66588;BME280;53446;50.076;8.198;2023-12-28T03:29:44;99538.47;;;7.59;100.00
66588;BME280;53446;50.076;8.198;2023-12-28T03:31:45;99543.66;;;7.62;100.00
66588;BME280;53446;50.076;8.198;2023-12-28T03:33:45;99537.00;;;7.68;100.00
66588;BME280;53446;50.076;8.198;2023-12-28T03:35:45;99527.78;;;7.72;100.00
66588;BME280;53446;50.076;8.198;2023-12-28T03:37:45;99541.81;;;7.77;100.00
66588;BME280;53446;50.076;8.198;2023-12-28T03:39:46;99551.84;;;7.75;100.00
66588;BME280;53446;50.076;8.198;2023-12-28T03:41:49;99533.66;;;7.78;100.00
66588;BME280;53446;50.076;8.198;2023-12-28T03:43:49;99529.41;;;7.74;100.00
66588;BME280;53446;50.076;8.198;2023-12-28T03:45:49;99538.19;;;7.78;100.00
66588;BME280;53446;50.076;8.198;2023-12-28T03:47:50;99532.59;;;7.81;100.00
66588;BME280;53446;50.076;8.198;2023-12-28T03:49:51;99540.69;;;7.81;100.00
66588;BME280;53446;50.076;8.198;2023-12-28T03:51:51;99540.59;;;7.82;100.00
66588;BME280;53446;50.076;8.198;2023-12-28T03:53:52;99543.38;;;7.81;100.00
66588;BME280;53446;50.076;8.198;2023-12-28T03:55:52;99541.44;;;7.83;100.00
66588;BME280;53446;50.076;8.198;2023-12-28T03:57:52;99541.25;;;7.86;100.00
66588;BME280;53446;50.076;8.198;2023-12-28T03:59:52;99548.38;;;7.87;100.00
66588;BME280;53446;50.076;8.198;2023-12-28T04:01:53;99546.47;;;7.89;100.00
66588;BME280;53446;50.076;8.198;2023-12-28T04:03:54;99553.34;;;7.93;100.00
66588;BME280;53446;50.076;8.198;2023-12-28T04:05:54;99546.25;;;7.92;100.00
66588;BME280;53446;50.076;8.198;2023-12-28T04:07:54;99531.75;;;7.95;100.00
66588;BME280;53446;50.076;8.198;2023-12-28T04:09:54;99521.81;;;7.95;100.00
66588;BME280;53446;50.076;8.198;2023-12-28T04:11:56;99535.19;;;7.97;100.00
66588;BME280;53446;50.076;8.198;2023-12-28T04:13:56;99547.88;;;7.95;100.00
66588;BME280;53446;50.076;8.198;2023-12-28T04:15:56;99561.06;;;7.99;100.00
66588;BME280;53446;50.076;8.198;2023-12-28T04:17:57;99553.19;;;7.96;100.00
66588;BME280;53446;50.076;8.198;2023-12-28T04:19:57;99554.69;;;8.00;100.00
66588;BME280;53446;50.076;8.198;2023-12-28T04:21:57;99535.78;;;8.02;100.00
66588;BME280;53446;50.076;8.198;2023-12-28T04:23:57;99531.44;;;7.99;100.00
66588;BME280;53446;50.076;8.198;2023-12-28T04:25:58;99523.56;;;7.96;100.00
66588;BME280;53446;50.076;8.198;2023-12-28T04:27:58;99534.22;;;7.98;100.00
66588;BME280;53446;50.076;8.198;2023-12-28T04:29:59;99530.59;;;7.99;100.00
66588;BME280;53446;50.076;8.198;2023-12-28T04:31:59;99549.53;;;7.97;100.00
66588;BME280;53446;50.076;8.198;2023-12-28T04:33:59;99547.59;;;7.99;100.00
66588;BME280;53446;50.076;8.198;2023-12-28T04:36:01;99558.16;;;8.02;100.00
66588;BME280;53446;50.076;8.198;2023-12-28T04:38:03;99550.78;;;8.06;100.00
66588;BME280;53446;50.076;8.198;2023-12-28T04:40:04;99547.88;;;8.09;100.00
66588;BME280;53446;50.076;8.198;2023-12-28T04:42:04;99545.09;;;8.11;100.00
66588;BME280;53446;50.076;8.198;2023-12-28T04:44:04;99553.84;;;8.14;100.00
66588;BME280;53446;50.076;8.198;2023-12-28T04:46:05;99562.59;;;8.18;100.00
66588;BME280;53446;50.076;8.198;2023-12-28T04:48:05;99566.22;;;8.17;100.00
66588;BME280;53446;50.076;8.198;2023-12-28T04:50:06;99562.69;;;8.16;100.00
66588;BME280;53446;50.076;8.198;2023-12-28T04:52:07;99567.78;;;8.21;100.00
66588;BME280;53446;50.076;8.198;2023-12-28T04:54:07;99582.78;;;8.25;100.00
66588;BME280;53446;50.076;8.198;2023-12-28T04:56:07;99574.03;;;8.21;100.00
66588;BME280;53446;50.076;8.198;2023-12-28T04:58:08;99585.66;;;8.22;100.00
66588;BME280;53446;50.076;8.198;2023-12-28T05:00:08;99585.84;;;8.19;100.00
66588;BME280;53446;50.076;8.198;2023-12-28T05:02:09;99591.25;;;8.19;100.00
66588;BME280;53446;50.076;8.198;2023-12-28T05:04:10;99584.16;;;8.18;100.00
66588;BME280;53446;50.076;8.198;2023-12-28T05:06:10;99588.75;;;8.16;100.00
66588;BME280;53446;50.076;8.198;2023-12-28T05:08:10;99592.09;;;8.19;100.00
66588;BME280;53446;50.076;8.198;2023-12-28T05:10:10;99586.72;;;8.19;100.00
66588;BME280;53446;50.076;8.198;2023-12-28T05:12:11;99587.69;;;8.18;100.00
66588;BME280;53446;50.076;8.198;2023-12-28T05:14:11;99586.28;;;8.13;100.00
66588;BME280;53446;50.076;8.198;2023-12-28T05:16:11;99598.06;;;8.10;100.00
66588;BME280;53446;50.076;8.198;2023-12-28T05:18:12;99587.91;;;8.15;100.00
66588;BME280;53446;50.076;8.198;2023-12-28T05:20:12;99589.69;;;8.15;100.00
66588;BME280;53446;50.076;8.198;2023-12-28T05:22:12;99589.91;;;8.12;100.00
66588;BME280;53446;50.076;8.198;2023-12-28T05:24:13;99583.56;;;8.13;100.00
66588;BME280;53446;50.076;8.198;2023-12-28T05:26:13;99590.09;;;8.09;100.00
66588;BME280;53446;50.076;8.198;2023-12-28T05:28:14;99573.09;;;8.08;100.00
66588;BME280;53446;50.076;8.198;2023-12-28T05:30:14;99574.91;;;8.07;100.00
66588;BME280;53446;50.076;8.198;2023-12-28T05:32:14;99577.88;;;8.03;100.00
66588;BME280;53446;50.076;8.198;2023-12-28T05:34:15;99589.81;;;7.99;100.00
66588;BME280;53446;50.076;8.198;2023-12-28T05:36:15;99595.28;;;7.97;100.00
66588;BME280;53446;50.076;8.198;2023-12-28T05:38:15;99578.16;;;7.98;100.00
66588;BME280;53446;50.076;8.198;2023-12-28T05:40:15;99585.66;;;7.93;100.00
66588;BME280;53446;50.076;8.198;2023-12-28T05:42:16;99591.81;;;7.95;100.00
66588;BME280;53446;50.076;8.198;2023-12-28T05:44:16;99595.66;;;7.91;100.00
66588;BME280;53446;50.076;8.198;2023-12-28T05:46:17;99598.56;;;7.88;100.00
66588;BME280;53446;50.076;8.198;2023-12-28T05:48:17;99600.31;;;7.89;100.00
66588;BME280;53446;50.076;8.198;2023-12-28T05:50:17;99602.88;;;7.91;100.00
66588;BME280;53446;50.076;8.198;2023-12-28T05:52:18;99610.03;;;7.92;100.00
66588;BME280;53446;50.076;8.198;2023-12-28T05:54:19;99608.38;;;7.89;100.00
66588;BME280;53446;50.076;8.198;2023-12-28T05:56:19;99607.50;;;7.89;100.00
66588;BME280;53446;50.076;8.198;2023-12-28T05:58:20;99595.09;;;7.86;100.00
66588;BME280;53446;50.076;8.198;2023-12-28T06:00:20;99613.16;;;7.84;100.00
66588;BME280;53446;50.076;8.198;2023-12-28T06:02:21;99594.22;;;7.85;100.00
66588;BME280;53446;50.076;8.198;2023-12-28T06:04:21;99597.00;;;7.84;100.00
66588;BME280;53446;50.076;8.198;2023-12-28T06:06:21;99597.00;;;7.84;100.00
66588;BME280;53446;50.076;8.198;2023-12-28T06:08:22;99595.88;;;7.88;100.00
66588;BME280;53446;50.076;8.198;2023-12-28T06:10:22;99586.84;;;7.89;100.00
66588;BME280;53446;50.076;8.198;2023-12-28T06:12:22;99589.34;;;7.92;100.00
66588;BME280;53446;50.076;8.198;2023-12-28T06:14:22;99577.59;;;7.93;100.00
66588;BME280;53446;50.076;8.198;2023-12-28T06:16:23;99592.97;;;7.91;100.00
66588;BME280;53446;50.076;8.198;2023-12-28T06:18:23;99584.81;;;7.93;100.00
66588;BME280;53446;50.076;8.198;2023-12-28T06:20:23;99597.41;;;7.92;100.00
66588;BME280;53446;50.076;8.198;2023-12-28T06:22:24;99592.13;;;7.91;100.00
66588;BME280;53446;50.076;8.198;2023-12-28T06:24:27;99587.50;;;7.93;100.00
66588;BME280;53446;50.076;8.198;2023-12-28T06:26:27;99594.72;;;7.92;100.00
66588;BME280;53446;50.076;8.198;2023-12-28T06:28:28;99589.53;;;7.89;100.00
66588;BME280;53446;50.076;8.198;2023-12-28T06:30:28;99589.69;;;7.86;100.00
66588;BME280;53446;50.076;8.198;2023-12-28T06:32:28;99600.66;;;7.83;100.00
66588;BME280;53446;50.076;8.198;2023-12-28T06:34:28;99592.59;;;7.83;100.00
66588;BME280;53446;50.076;8.198;2023-12-28T06:36:29;99598.75;;;7.85;100.00
66588;BME280;53446;50.076;8.198;2023-12-28T06:38:29;99603.16;;;7.86;100.00
66588;BME280;53446;50.076;8.198;2023-12-28T06:40:31;99602.22;;;7.87;100.00
66588;BME280;53446;50.076;8.198;2023-12-28T06:42:32;99590.59;;;7.87;100.00
66588;BME280;53446;50.076;8.198;2023-12-28T06:44:32;99589.69;;;7.86;100.00
66588;BME280;53446;50.076;8.198;2023-12-28T06:46:32;99595.09;;;7.86;100.00
66588;BME280;53446;50.076;8.198;2023-12-28T06:48:33;99582.81;;;7.82;100.00
66588;BME280;53446;50.076;8.198;2023-12-28T06:50:33;99592.50;;;7.84;100.00
66588;BME280;53446;50.076;8.198;2023-12-28T06:52:33;99599.91;;;7.81;100.00
66588;BME280;53446;50.076;8.198;2023-12-28T06:54:33;99603.00;;;7.75;100.00
66588;BME280;53446;50.076;8.198;2023-12-28T06:56:34;99599.97;;;7.79;100.00
66588;BME280;53446;50.076;8.198;2023-12-28T06:58:34;99601.81;;;7.79;100.00
66588;BME280;53446;50.076;8.198;2023-12-28T07:00:34;99603.56;;;7.80;100.00
66588;BME280;53446;50.076;8.198;2023-12-28T07:02:34;99604.13;;;7.85;100.00
66588;BME280;53446;50.076;8.198;2023-12-28T07:04:35;99607.78;;;7.84;100.00
66588;BME280;53446;50.076;8.198;2023-12-28T07:06:35;99604.13;;;7.85;100.00
66588;BME280;53446;50.076;8.198;2023-12-28T07:08:35;99604.91;;;7.87;100.00
66588;BME280;53446;50.076;8.198;2023-12-28T07:10:36;99606.75;;;7.87;100.00
66588;BME280;53446;50.076;8.198;2023-12-28T07:12:36;99604.13;;;7.85;100.00
66588;BME280;53446;50.076;8.198;2023-12-28T07:14:37;99602.50;;;7.82;100.00
66588;BME280;53446;50.076;8.198;2023-12-28T07:16:37;99601.44;;;7.85;100.00
66588;BME280;53446;50.076;8.198;2023-12-28T07:18:37;99610.09;;;7.90;100.00
66588;BME280;53446;50.076;8.198;2023-12-28T07:20:38;99610.09;;;7.90;100.00
66588;BME280;53446;50.076;8.198;2023-12-28T07:22:38;99610.88;;;7.92;100.00
66588;BME280;53446;50.076;8.198;2023-12-28T07:24:38;99634.41;;;7.89;100.00
66588;BME280;53446;50.076;8.198;2023-12-28T07:26:39;99623.56;;;7.90;100.00
66588;BME280;53446;50.076;8.198;2023-12-28T07:28:39;99619.91;;;7.91;100.00
66588;BME280;53446;50.076;8.198;2023-12-28T07:30:42;99636.25;;;7.88;100.00
66588;BME280;53446;50.076;8.198;2023-12-28T07:32:43;99628.75;;;7.93;100.00
66588;BME280;53446;50.076;8.198;2023-12-28T07:34:44;99635.09;;;7.92;100.00
66588;BME280;53446;50.076;8.198;2023-12-28T07:36:44;99630.66;;;7.91;100.00
66588;BME280;53446;50.076;8.198;2023-12-28T07:38:44;99622.59;;;7.91;100.00
66588;BME280;53446;50.076;8.198;2023-12-28T07:40:44;99627.03;;;7.92;100.00
66588;BME280;53446;50.076;8.198;2023-12-28T07:42:45;99635.19;;;7.91;100.00
66588;BME280;53446;50.076;8.198;2023-12-28T07:44:45;99632.63;;;7.89;100.00
66588;BME280;53446;50.076;8.198;2023-12-28T07:46:45;99639.72;;;7.90;100.00
66588;BME280;53446;50.076;8.198;2023-12-28T07:48:46;99647.59;;;7.93;100.00
66588;BME280;53446;50.076;8.198;2023-12-28T07:50:46;99653.56;;;7.98;100.00
66588;BME280;53446;50.076;8.198;2023-12-28T07:52:47;99640.78;;;8.02;100.00
66588;BME280;53446;50.076;8.198;2023-12-28T07:54:48;99638.09;;;8.02;100.00
66588;BME280;53446;50.076;8.198;2023-12-28T07:56:49;99645.19;;;8.03;100.00
66588;BME280;53446;50.076;8.198;2023-12-28T07:58:49;99632.50;;;8.05;100.00
66588;BME280;53446;50.076;8.198;2023-12-28T08:00:49;99633.19;;;8.09;100.00
66588;BME280;53446;50.076;8.198;2023-12-28T08:02:50;99640.31;;;8.10;100.00
66588;BME280;53446;50.076;8.198;2023-12-28T08:04:50;99645.53;;;8.13;100.00
66588;BME280;53446;50.076;8.198;2023-12-28T08:06:51;99644.63;;;8.12;100.00
66588;BME280;53446;50.076;8.198;2023-12-28T08:08:51;99633.84;;;8.12;100.00
66588;BME280;53446;50.076;8.198;2023-12-28T08:10:51;99639.25;;;8.12;100.00
66588;BME280;53446;50.076;8.198;2023-12-28T08:12:51;99650.72;;;8.16;100.00
66588;BME280;53446;50.076;8.198;2023-12-28T08:14:52;99648.88;;;8.16;100.00
66588;BME280;53446;50.076;8.198;2023-12-28T08:16:52;99639.72;;;8.19;100.00
66588;BME280;53446;50.076;8.198;2023-12-28T08:18:52;99645.13;;;8.19;100.00
66588;BME280;53446;50.076;8.198;2023-12-28T08:20:52;99638.66;;;8.21;100.00
66588;BME280;53446;50.076;8.198;2023-12-28T08:22:53;99632.22;;;8.24;100.00
66588;BME280;53446;50.076;8.198;2023-12-28T08:24:53;99646.47;;;8.26;100.00
66588;BME280;53446;50.076;8.198;2023-12-28T08:26:53;99647.53;;;8.23;100.00
66588;BME280;53446;50.076;8.198;2023-12-28T08:28:54;99641.00;;;8.27;100.00
66588;BME280;53446;50.076;8.198;2023-12-28T08:30:56;99646.38;;;8.27;100.00
66588;BME280;53446;50.076;8.198;2023-12-28T08:32:57;99630.78;;;8.33;100.00
66588;BME280;53446;50.076;8.198;2023-12-28T08:34:57;99639.72;;;8.33;100.00
66588;BME280;53446;50.076;8.198;2023-12-28T08:36:57;99645.13;;;8.33;100.00
66588;BME280;53446;50.076;8.198;2023-12-28T08:38:58;99629.50;;;8.38;100.00
66588;BME280;53446;50.076;8.198;2023-12-28T08:40:58;99635.53;;;8.43;100.00
66588;BME280;53446;50.076;8.198;2023-12-28T08:42:58;99637.25;;;8.44;100.00
66588;BME280;53446;50.076;8.198;2023-12-28T08:44:59;99639.56;;;8.51;100.00
66588;BME280;53446;50.076;8.198;2023-12-28T08:46:59;99643.97;;;8.52;100.00
66588;BME280;53446;50.076;8.198;2023-12-28T08:48:59;99639.38;;;8.54;100.00
66588;BME280;53446;50.076;8.198;2023-12-28T08:51:00;99649.09;;;8.56;100.00
66588;BME280;53446;50.076;8.198;2023-12-28T08:53:00;99644.56;;;8.57;100.00
66588;BME280;53446;50.076;8.198;2023-12-28T08:55:00;99641.25;;;8.66;100.00
66588;BME280;53446;50.076;8.198;2023-12-28T08:57:01;99650.31;;;8.65;100.00
66588;BME280;53446;50.076;8.198;2023-12-28T08:59:01;99649.13;;;8.69;100.00
66588;BME280;53446;50.076;8.198;2023-12-28T09:01:01;99637.75;;;8.78;100.00
66588;BME280;53446;50.076;8.198;2023-12-28T09:03:02;99636.69;;;8.81;100.00
66588;BME280;53446;50.076;8.198;2023-12-28T09:05:02;99652.41;;;8.88;100.00
66588;BME280;53446;50.076;8.198;2023-12-28T09:07:03;99654.19;;;8.88;100.00
66588;BME280;53446;50.076;8.198;2023-12-28T09:09:03;99663.19;;;8.88;100.00
66588;BME280;53446;50.076;8.198;2023-12-28T09:11:04;99665.28;;;8.98;100.00
66588;BME280;53446;50.076;8.198;2023-12-28T09:13:04;99659.69;;;9.01;100.00
66588;BME280;53446;50.076;8.198;2023-12-28T09:15:05;99653.69;;;9.10;100.00
66588;BME280;53446;50.076;8.198;2023-12-28T09:17:06;99658.66;;;9.16;100.00
66588;BME280;53446;50.076;8.198;2023-12-28T09:19:06;99660.84;;;9.24;100.00
66588;BME280;53446;50.076;8.198;2023-12-28T09:21:08;99658.41;;;9.33;100.00
66588;BME280;53446;50.076;8.198;2023-12-28T09:23:08;99670.63;;;9.39;100.00
66588;BME280;53446;50.076;8.198;2023-12-28T09:25:10;99658.88;;;9.40;100.00
66588;BME280;53446;50.076;8.198;2023-12-28T09:27:11;99654.19;;;9.42;100.00
66588;BME280;53446;50.076;8.198;2023-12-28T09:29:11;99657.78;;;9.43;100.00
66588;BME280;53446;50.076;8.198;2023-12-28T09:31:11;99664.75;;;9.32;100.00
66588;BME280;53446;50.076;8.198;2023-12-28T09:33:12;99664.66;;;9.34;100.00
66588;BME280;53446;50.076;8.198;2023-12-28T09:35:12;99680.94;;;9.32;100.00
66588;BME280;53446;50.076;8.198;2023-12-28T09:37:12;99668.34;;;9.33;100.00
66588;BME280;53446;50.076;8.198;2023-12-28T09:39:13;99666.50;;;9.33;100.00
66588;BME280;53446;50.076;8.198;2023-12-28T09:41:15;99677.28;;;9.33;100.00
66588;BME280;53446;50.076;8.198;2023-12-28T09:45:20;99679.88;;;9.35;100.00
66588;BME280;53446;50.076;8.198;2023-12-28T09:47:21;99674.38;;;9.37;100.00
66588;BME280;53446;50.076;8.198;2023-12-28T09:49:21;99670.63;;;9.39;100.00
66588;BME280;53446;50.076;8.198;2023-12-28T09:51:22;99679.69;;;9.38;100.00
66588;BME280;53446;50.076;8.198;2023-12-28T09:53:23;99680.56;;;9.39;100.00
66588;BME280;53446;50.076;8.198;2023-12-28T09:55:24;99668.91;;;9.38;100.00
66588;BME280;53446;50.076;8.198;2023-12-28T09:57:25;99675.91;;;9.41;100.00
66588;BME280;53446;50.076;8.198;2023-12-28T09:59:27;99673.88;;;9.44;100.00
66588;BME280;53446;50.076;8.198;2023-12-28T10:01:28;99681.66;;;9.49;100.00
66588;BME280;53446;50.076;8.198;2023-12-28T10:03:28;99685.13;;;9.51;100.00
66588;BME280;53446;50.076;8.198;2023-12-28T10:05:29;99680.19;;;9.58;100.00
66588;BME280;53446;50.076;8.198;2023-12-28T10:07:31;99673.06;;;9.69;100.00
66588;BME280;53446;50.076;8.198;2023-12-28T10:09:31;99677.63;;;9.82;100.00
66588;BME280;53446;50.076;8.198;2023-12-28T10:11:31;99679.59;;;9.92;100.00
66588;BME280;53446;50.076;8.198;2023-12-28T10:13:32;99672.59;;;10.03;100.00
66588;BME280;53446;50.076;8.198;2023-12-28T10:15:35;99658.34;;;10.13;100.00
66588;BME280;53446;50.076;8.198;2023-12-28T10:17:35;99658.63;;;10.22;100.00
66588;BME280;53446;50.076;8.198;2023-12-28T10:19:37;99659.09;;;10.28;100.00
66588;BME280;53446;50.076;8.198;2023-12-28T10:21:42;99661.25;;;10.23;100.00
66588;BME280;53446;50.076;8.198;2023-12-28T10:23:43;99655.63;;;10.26;100.00
66588;BME280;53446;50.076;8.198;2023-12-28T10:25:44;99665.91;;;10.34;100.00
66588;BME280;53446;50.076;8.198;2023-12-28T10:27:46;99670.97;;;10.38;100.00
66588;BME280;53446;50.076;8.198;2023-12-28T10:29:46;99664.50;;;10.41;100.00
66588;BME280;53446;50.076;8.198;2023-12-28T10:31:46;99663.84;;;10.50;100.00
66588;BME280;53446;50.076;8.198;2023-12-28T10:33:50;99662.75;;;10.66;100.00
66588;BME280;53446;50.076;8.198;2023-12-28T10:35:51;99662.47;;;10.81;100.00
66588;BME280;53446;50.076;8.198;2023-12-28T10:37:52;99656.47;;;11.02;100.00
66588;BME280;53446;50.076;8.198;2023-12-28T10:39:55;99657.75;;;11.33;100.00
66588;BME280;53446;50.076;8.198;2023-12-28T10:41:58;99652.84;;;11.74;100.00
66588;BME280;53446;50.076;8.198;2023-12-28T10:44:03;99643.03;;;12.19;100.00
66588;BME280;53446;50.076;8.198;2023-12-28T10:46:04;99647.47;;;12.65;100.00